Time;durP1;ratioP1;P1;durP2;ratioP2;P2;SDS_P1;SDS_P2;PMS_P1;PMS_P2;Temp;Humidity;BMP_temperature;BMP_pressure;BME280_temperature;BME280_humidity;BME280_pressure;Samples;Min_cycle;Max_cycle;Signal;HPM_P1;HPM_P2
2023/05/09 00:01:46;;;;;;;15.50;14.00;;;15.00;99.90;;;;;;6163982;23;20415;-70
2023/05/09 00:04:12;;;;;;;16.20;14.50;;;15.00;99.90;;;;;;6165770;23;20761;-73
2023/05/09 00:06:39;;;;;;;20.00;15.53;;;15.00;99.90;;;;;;6165338;23;20203;-72
2023/05/09 00:09:04;;;;;;;16.80;15.17;;;15.00;99.90;;;;;;6140393;23;20159;-72
2023/05/09 00:11:30;;;;;;;17.00;15.30;;;15.00;99.90;;;;;;6162978;23;20370;-72
2023/05/09 00:13:56;;;;;;;19.17;15.03;;;15.00;99.90;;;;;;6163105;23;20459;-71
2023/05/09 00:16:23;;;;;;;15.77;14.10;;;14.90;99.90;;;;;;6166079;23;20356;-72
2023/05/09 00:18:49;;;;;;;16.10;14.50;;;14.90;99.90;;;;;;6142224;23;20148;-71
2023/05/09 00:21:15;;;;;;;16.33;13.80;;;14.80;99.90;;;;;;6172838;23;20763;-71
2023/05/09 00:23:41;;;;;;;18.00;15.37;;;14.80;99.90;;;;;;6174095;23;20422;-71
2023/05/09 00:26:07;;;;;;;15.87;14.27;;;14.80;99.90;;;;;;6147374;23;20775;-72
2023/05/09 00:28:32;;;;;;;15.70;14.10;;;14.80;99.90;;;;;;6147717;23;20146;-71
2023/05/09 00:30:58;;;;;;;16.20;14.60;;;14.80;99.90;;;;;;6148092;23;20171;-71
2023/05/09 00:33:26;;;;;;;15.07;13.57;;;14.80;99.90;;;;;;6138684;23;20151;-72
2023/05/09 00:35:53;;;;;;;12.33;11.13;;;14.80;99.90;;;;;;6137621;23;20146;-70
2023/05/09 00:38:18;;;;;;;11.73;10.40;;;14.80;99.90;;;;;;6163587;23;20688;-72
2023/05/09 00:40:44;;;;;;;10.50;9.50;;;14.90;99.90;;;;;;6163079;23;20394;-72
2023/05/09 00:43:10;;;;;;;10.50;9.50;;;14.90;99.90;;;;;;6141570;23;20182;-72
2023/05/09 00:45:35;;;;;;;10.90;9.77;;;14.90;99.90;;;;;;6164643;23;20222;-71
2023/05/09 00:48:01;;;;;;;12.60;11.40;;;14.90;99.90;;;;;;6167287;23;20131;-71
2023/05/09 00:50:27;;;;;;;12.53;11.30;;;14.90;99.90;;;;;;6139195;23;20171;-72
2023/05/09 00:52:52;;;;;;;15.17;13.67;;;15.00;99.90;;;;;;6140796;23;20215;-72
2023/05/09 00:55:18;;;;;;;13.27;12.07;;;15.10;99.90;;;;;;6141241;23;20167;-74
2023/05/09 00:57:44;;;;;;;9.80;8.90;;;15.10;99.90;;;;;;6140794;23;20163;-71
2023/05/09 01:00:11;;;;;;;9.90;9.00;;;15.10;99.90;;;;;;6165470;23;20478;-73
2023/05/09 01:02:43;;;;;;;9.23;8.27;;;15.10;99.90;;;;;;6139841;23;20249;-71
2023/05/09 01:05:10;;;;;;;8.40;7.60;;;15.20;99.90;;;;;;6139289;23;20371;-71
2023/05/09 01:07:48;;;;;;;9.60;8.70;;;15.20;99.90;;;;;;6164429;23;20356;-71
2023/05/09 01:10:40;;;;;;;14.00;12.60;;;15.20;99.90;;;;;;6139547;23;20399;-71
2023/05/09 01:13:13;;;;;;;12.93;11.63;;;15.20;99.90;;;;;;6140035;23;20426;-73
2023/05/09 01:16:19;;;;;;;12.53;11.33;;;15.30;99.90;;;;;;6165393;23;20462;-72
2023/05/09 01:18:50;;;;;;;13.27;11.97;;;15.20;99.90;;;;;;6120578;23;20454;-72
2023/05/09 01:21:20;;;;;;;10.13;9.13;;;15.30;99.90;;;;;;6144031;23;20377;-71
2023/05/09 01:24:05;;;;;;;11.80;10.67;;;15.30;99.90;;;;;;6144851;23;20434;-72
2023/05/09 01:26:45;;;;;;;9.00;8.10;;;15.30;99.90;;;;;;6170676;23;20417;-70
2023/05/09 01:29:30;;;;;;;15.10;13.50;;;15.30;99.90;;;;;;6169033;23;20395;-72
2023/05/09 01:31:57;;;;;;;13.00;11.70;;;15.30;99.90;;;;;;6172639;23;20397;-70
2023/05/09 01:34:26;;;;;;;13.77;12.20;;;15.30;99.90;;;;;;6168116;23;20355;-70
2023/05/09 01:36:57;;;;;;;13.53;12.07;;;15.20;99.90;;;;;;6141198;23;20375;-71
2023/05/09 01:39:24;;;;;;;14.60;13.00;;;15.30;99.90;;;;;;6140407;23;20402;-71
2023/05/09 01:41:53;;;;;;;14.37;12.90;;;15.30;99.90;;;;;;6163779;23;20410;-72
2023/05/09 01:44:21;;;;;;;15.10;13.60;;;15.30;99.90;;;;;;6138613;23;20359;-71
2023/05/09 01:46:47;;;;;;;14.40;12.53;;;15.30;99.90;;;;;;6113975;23;20377;-70
2023/05/09 01:49:15;;;;;;;19.20;17.30;;;15.20;99.90;;;;;;6113509;23;20403;-72
2023/05/09 01:51:42;;;;;;;18.23;16.43;;;15.30;99.90;;;;;;6165159;23;20431;-71
2023/05/09 01:54:10;;;;;;;16.93;15.10;;;15.30;99.90;;;;;;6163545;23;20373;-71
2023/05/09 01:56:37;;;;;;;17.63;15.70;;;15.30;99.90;;;;;;6138069;23;20414;-71
2023/05/09 01:59:05;;;;;;;18.73;15.23;;;15.30;99.90;;;;;;6112453;23;20399;-71
2023/05/09 02:01:31;;;;;;;19.57;14.80;;;15.30;99.90;;;;;;6113818;23;20387;-71
2023/05/09 02:03:58;;;;;;;15.60;14.00;;;15.20;99.90;;;;;;6163267;23;20413;-73
2023/05/09 02:06:25;;;;;;;17.97;16.13;;;15.20;99.90;;;;;;6112482;23;20382;-70
2023/05/09 02:08:52;;;;;;;18.50;16.60;;;15.20;99.90;;;;;;6163985;23;20360;-72
2023/05/09 02:11:17;;;;;;;18.00;16.10;;;15.20;99.90;;;;;;6164447;23;20434;-71
2023/05/09 02:13:43;;;;;;;20.67;18.43;;;15.20;99.90;;;;;;6162531;23;20183;-72
2023/05/09 02:16:10;;;;;;;16.50;14.80;;;15.20;99.90;;;;;;6136616;23;20493;-72
2023/05/09 02:18:37;;;;;;;16.17;14.50;;;15.10;99.90;;;;;;6113045;23;20155;-71
2023/05/09 02:21:04;;;;;;;19.17;16.17;;;15.10;99.90;;;;;;6163089;23;20393;-71
2023/05/09 02:23:30;;;;;;;22.50;20.10;;;15.10;99.90;;;;;;6137531;23;20654;-72
2023/05/09 02:25:56;;;;;;;20.10;18.00;;;15.10;99.90;;;;;;6163278;23;20438;-70
2023/05/09 02:28:24;;;;;;;16.97;15.23;;;15.10;99.90;;;;;;6161523;23;20442;-71
2023/05/09 02:30:51;;;;;;;18.73;16.83;;;15.10;99.90;;;;;;6136874;23;20171;-71
2023/05/09 02:33:17;;;;;;;16.43;14.67;;;15.10;99.90;;;;;;6163675;23;20855;-71
2023/05/09 02:35:45;;;;;;;14.63;12.90;;;15.10;99.90;;;;;;6164959;23;20367;-70
2023/05/09 02:38:12;;;;;;;15.20;13.70;;;15.10;99.90;;;;;;6169212;23;20367;-71
2023/05/09 02:40:38;;;;;;;14.07;12.13;;;15.10;99.90;;;;;;6151176;23;20413;-73
2023/05/09 02:43:04;;;;;;;11.53;10.30;;;15.10;99.90;;;;;;6170025;23;20401;-70
2023/05/09 02:45:30;;;;;;;14.60;13.00;;;15.10;99.90;;;;;;6162493;23;20363;-71
2023/05/09 02:47:56;;;;;;;15.13;13.20;;;15.10;99.90;;;;;;6161984;23;20787;-70
2023/05/09 02:50:22;;;;;;;17.43;15.17;;;15.10;99.90;;;;;;6136532;23;20394;-71
2023/05/09 02:52:48;;;;;;;18.17;16.30;;;15.10;99.90;;;;;;6161194;23;20378;-71
2023/05/09 02:55:13;;;;;;;16.20;14.30;;;15.00;99.90;;;;;;6161623;23;20151;-71
2023/05/09 02:57:40;;;;;;;16.93;15.00;;;15.00;99.90;;;;;;6136486;23;20180;-72
2023/05/09 03:00:10;;;;;;;22.80;20.37;;;15.00;99.90;;;;;;6162043;23;20395;-71
2023/05/09 03:02:36;;;;;;;22.80;20.53;;;14.90;99.90;;;;;;6162529;23;20417;-70
2023/05/09 03:05:03;;;;;;;18.70;15.90;;;14.90;99.90;;;;;;6137254;23;20650;-71
2023/05/09 03:07:29;;;;;;;20.57;17.00;;;14.90;99.90;;;;;;6113768;23;20450;-71
2023/05/09 03:09:55;;;;;;;18.67;16.77;;;14.90;99.90;;;;;;6162424;23;20406;-72
2023/05/09 03:12:21;;;;;;;17.70;15.40;;;14.90;99.90;;;;;;6161565;23;20378;-70
2023/05/09 03:14:51;;;;;;;17.30;15.50;;;14.90;99.90;;;;;;6163820;23;20485;-73
2023/05/09 03:17:20;;;;;;;21.40;19.27;;;14.80;99.90;;;;;;6145349;23;20374;-70
2023/05/09 03:19:49;;;;;;;19.27;17.37;;;14.90;99.90;;;;;;6111930;23;20170;-70
2023/05/09 03:22:15;;;;;;;17.30;15.53;;;14.90;99.90;;;;;;6111873;23;20449;-70
2023/05/09 03:24:49;;;;;;;17.77;15.37;;;14.90;99.90;;;;;;6116398;23;20433;-70
2023/05/09 03:27:16;;;;;;;16.13;14.50;;;14.90;99.90;;;;;;6137331;23;20387;-72
2023/05/09 03:29:42;;;;;;;18.80;16.90;;;14.90;99.90;;;;;;6164187;23;20397;-71
2023/05/09 03:32:08;;;;;;;17.90;16.00;;;14.90;99.90;;;;;;6140338;23;20167;-74
2023/05/09 03:34:33;;;;;;;16.10;14.50;;;14.90;99.90;;;;;;6142541;23;20143;-74
2023/05/09 03:37:00;;;;;;;19.20;16.57;;;14.90;99.90;;;;;;6140097;23;20150;-70
2023/05/09 03:39:27;;;;;;;21.33;18.53;;;14.80;99.90;;;;;;6139476;23;20864;-72
2023/05/09 03:41:55;;;;;;;20.00;17.90;;;14.90;99.90;;;;;;6140569;23;20414;-71
2023/05/09 03:44:21;;;;;;;20.70;16.97;;;14.90;99.90;;;;;;6140311;23;20381;-72
2023/05/09 03:46:47;;;;;;;17.93;16.03;;;14.90;99.90;;;;;;6165230;23;20365;-73
2023/05/09 03:49:13;;;;;;;24.70;21.87;;;14.80;99.90;;;;;;6164316;23;20206;-71
2023/05/09 03:51:39;;;;;;;22.50;20.20;;;14.90;99.90;;;;;;6167347;23;20641;-73
2023/05/09 03:54:08;;;;;;;27.47;21.80;;;14.90;99.90;;;;;;6142521;23;20197;-71
2023/05/09 03:56:34;;;;;;;21.73;19.27;;;14.90;99.90;;;;;;6165162;23;20397;-71
2023/05/09 03:59:00;;;;;;;21.93;19.50;;;14.90;99.90;;;;;;6166517;23;20186;-71
2023/05/09 04:01:27;;;;;;;26.90;23.70;;;14.90;99.90;;;;;;6164142;23;20398;-70
2023/05/09 04:03:56;;;;;;;22.80;20.43;;;14.90;99.90;;;;;;6166645;23;20371;-72
2023/05/09 04:06:23;;;;;;;20.47;18.37;;;14.90;99.90;;;;;;6140502;23;20377;-73
2023/05/09 04:08:49;;;;;;;25.30;21.30;;;14.90;99.90;;;;;;6139341;23;20398;-70
2023/05/09 04:11:14;;;;;;;24.53;20.87;;;14.90;99.90;;;;;;6165995;23;20147;-71
2023/05/09 04:13:43;;;;;;;25.67;21.40;;;14.90;99.90;;;;;;6167077;23;20183;-72
2023/05/09 04:16:26;;;;;;;21.10;19.00;;;14.90;99.90;;;;;;6166366;23;20370;-71
2023/05/09 04:18:52;;;;;;;23.30;20.60;;;14.90;99.90;;;;;;6167606;23;20704;-71
2023/05/09 04:21:18;;;;;;;20.80;18.20;;;14.90;99.90;;;;;;6140998;23;20367;-73
2023/05/09 04:23:47;;;;;;;20.50;18.30;;;14.80;99.90;;;;;;6166699;23;20520;-72
2023/05/09 04:26:15;;;;;;;19.40;16.27;;;14.80;99.90;;;;;;6140503;23;20390;-72
2023/05/09 04:28:43;;;;;;;18.97;16.97;;;14.80;99.90;;;;;;6140053;23;20393;-73
2023/05/09 04:31:13;;;;;;;21.10;18.00;;;14.90;99.90;;;;;;6117645;23;20381;-76
2023/05/09 04:33:41;;;;;;;23.50;20.30;;;14.90;99.90;;;;;;6142346;23;20402;-72
2023/05/09 04:36:07;;;;;;;20.70;18.47;;;14.90;99.90;;;;;;6140465;23;20379;-72
2023/05/09 04:38:33;;;;;;;22.97;19.60;;;14.80;99.90;;;;;;6115353;23;20154;-72
2023/05/09 04:41:00;;;;;;;20.50;17.60;;;14.80;99.90;;;;;;6140251;23;20656;-71
2023/05/09 04:43:26;;;;;;;19.03;17.03;;;14.80;99.90;;;;;;6140159;23;20485;-72
2023/05/09 04:45:52;;;;;;;20.80;18.60;;;14.80;99.90;;;;;;6143954;23;20399;-70
2023/05/09 04:48:18;;;;;;;20.40;18.20;;;14.80;99.90;;;;;;6144644;23;20826;-73
2023/05/09 04:50:44;;;;;;;23.57;19.93;;;14.80;99.90;;;;;;6169709;23;20390;-72
2023/05/09 04:53:09;;;;;;;24.10;21.50;;;14.80;99.90;;;;;;6144499;23;20203;-71
2023/05/09 04:55:36;;;;;;;20.83;18.70;;;14.80;99.90;;;;;;6120462;23;20169;-73
2023/05/09 04:58:01;;;;;;;20.27;18.13;;;14.80;99.90;;;;;;6168870;23;20449;-72
2023/05/09 05:00:28;;;;;;;18.93;16.93;;;14.90;99.90;;;;;;6167066;23;20186;-75
2023/05/09 05:02:54;;;;;;;20.17;17.00;;;14.90;99.90;;;;;;6149852;23;20441;-71
2023/05/09 05:05:22;;;;;;;20.67;17.90;;;15.00;99.90;;;;;;6143297;23;20374;-75
2023/05/09 05:07:48;;;;;;;16.60;14.93;;;15.10;99.90;;;;;;6117245;23;20370;-72
2023/05/09 05:10:19;;;;;;;17.70;15.10;;;15.10;99.90;;;;;;6143117;23;20398;-72
2023/05/09 05:12:49;;;;;;;18.83;17.03;;;15.20;99.90;;;;;;6165484;23;20402;-74
2023/05/09 05:15:15;;;;;;;18.57;16.57;;;15.30;99.90;;;;;;6142509;23;20399;-71
2023/05/09 05:17:43;;;;;;;19.17;17.17;;;15.40;99.90;;;;;;6141178;23;20156;-73
2023/05/09 05:20:09;;;;;;;20.93;18.70;;;15.50;99.90;;;;;;6143271;23;20399;-74
2023/05/09 05:22:39;;;;;;;20.70;18.13;;;15.60;99.90;;;;;;6144020;23;20449;-75
2023/05/09 05:25:06;;;;;;;21.87;19.23;;;15.70;99.90;;;;;;6171508;23;20413;-74
2023/05/09 05:27:32;;;;;;;22.20;19.97;;;15.70;99.90;;;;;;6146224;23;20160;-73
2023/05/09 05:29:59;;;;;;;20.93;18.73;;;15.80;99.90;;;;;;6119471;23;20406;-74
2023/05/09 05:32:24;;;;;;;20.17;17.63;;;15.90;99.90;;;;;;6169596;23;20374;-74
2023/05/09 05:34:50;;;;;;;16.83;15.07;;;16.00;99.90;;;;;;6144497;23;20414;-75
2023/05/09 05:37:16;;;;;;;23.17;19.23;;;16.10;99.90;;;;;;6145731;23;20206;-77
2023/05/09 05:39:42;;;;;;;17.87;16.00;;;16.20;99.90;;;;;;6171630;23;20398;-73
2023/05/09 05:42:08;;;;;;;22.10;19.80;;;16.30;99.90;;;;;;6146528;23;20521;-75
2023/05/09 05:44:33;;;;;;;20.57;17.37;;;16.50;99.90;;;;;;6145679;23;20143;-76
2023/05/09 05:46:59;;;;;;;17.57;15.80;;;16.60;99.90;;;;;;6147154;23;20363;-73
2023/05/09 05:49:26;;;;;;;18.57;16.17;;;16.70;99.90;;;;;;6144834;23;20261;-76
2023/05/09 05:51:51;;;;;;;19.37;17.33;;;16.70;99.90;;;;;;6146763;23;20383;-75
2023/05/09 05:54:18;;;;;;;17.17;15.40;;;16.70;99.90;;;;;;6141647;23;20205;-77
2023/05/09 05:56:43;;;;;;;17.83;16.03;;;16.70;99.90;;;;;;6171223;23;20703;-77
2023/05/09 05:59:09;;;;;;;20.27;18.10;;;16.70;99.90;;;;;;6172571;23;20197;-76
2023/05/09 06:01:35;;;;;;;21.43;19.40;;;16.80;99.90;;;;;;6169424;23;20173;-74
2023/05/09 06:04:01;;;;;;;20.17;18.10;;;16.90;99.90;;;;;;6146559;23;20147;-76
2023/05/09 06:06:29;;;;;;;16.93;15.27;;;17.30;99.90;;;;;;6146507;23;20139;-75
2023/05/09 06:08:56;;;;;;;17.30;15.50;;;17.50;99.90;;;;;;6172298;23;20763;-77
2023/05/09 06:11:25;;;;;;;22.20;18.80;;;17.70;99.90;;;;;;6144684;23;20339;-74
2023/05/09 06:13:51;;;;;;;17.53;15.47;;;17.90;99.90;;;;;;6147432;23;20525;-75
2023/05/09 06:16:17;;;;;;;19.50;16.57;;;18.10;99.90;;;;;;6170110;23;20379;-76
2023/05/09 06:18:42;;;;;;;18.47;16.53;;;18.10;99.90;;;;;;6144061;23;20152;-74
2023/05/09 06:21:08;;;;;;;20.60;18.43;;;18.20;99.90;;;;;;6173304;23;20136;-76
2023/05/09 06:23:35;;;;;;;15.10;13.60;;;18.20;99.90;;;;;;6170422;23;20179;-77
2023/05/09 06:26:02;;;;;;;15.43;13.83;;;18.20;99.90;;;;;;6171072;23;20133;-78
2023/05/09 06:28:29;;;;;;;17.10;15.30;;;18.40;99.90;;;;;;6144310;23;20374;-77
2023/05/09 06:30:54;;;;;;;16.77;15.00;;;18.50;99.90;;;;;;6145979;23;20405;-74
2023/05/09 06:33:20;;;;;;;17.60;15.77;;;18.60;99.90;;;;;;6146772;23;20365;-76
2023/05/09 06:35:46;;;;;;;14.63;13.07;;;18.80;99.90;;;;;;6146844;23;20585;-75
2023/05/09 06:38:11;;;;;;;18.30;16.40;;;19.00;99.90;;;;;;6172760;23;20154;-76
2023/05/09 06:40:37;;;;;;;13.83;12.53;;;19.00;99.90;;;;;;6146306;23;20166;-76
2023/05/09 06:43:03;;;;;;;12.93;11.63;;;19.10;99.90;;;;;;6176133;23;20421;-76
2023/05/09 06:45:29;;;;;;;14.00;12.63;;;19.10;99.90;;;;;;6151262;23;20142;-78
2023/05/09 06:47:57;;;;;;;14.50;13.00;;;19.30;99.90;;;;;;6177232;23;20168;-76
2023/05/09 06:50:23;;;;;;;16.67;15.07;;;19.60;99.90;;;;;;6179228;23;20387;-76
2023/05/09 06:52:49;;;;;;;15.40;13.90;;;19.90;99.90;;;;;;6152976;23;20186;-77
2023/05/09 06:55:18;;;;;;;12.23;11.03;;;20.20;99.90;;;;;;6124773;23;20151;-77
2023/05/09 06:57:43;;;;;;;14.30;12.90;;;20.40;99.90;;;;;;6147202;23;20182;-76
2023/05/09 07:00:10;;;;;;;14.40;13.00;;;20.50;99.90;;;;;;6146558;23;20399;-76
2023/05/09 07:02:40;;;;;;;13.67;10.80;;;20.60;99.90;;;;;;6123777;23;20190;-76
2023/05/09 07:05:07;;;;;;;12.70;10.30;;;20.60;99.90;;;;;;6154403;23;20402;-76
2023/05/09 07:07:35;;;;;;;10.57;9.67;;;20.70;99.90;;;;;;6151267;23;20450;-78
2023/05/09 07:10:03;;;;;;;8.80;7.70;;;20.80;99.90;;;;;;6152914;23;20382;-77
2023/05/09 07:12:35;;;;;;;8.57;7.77;;;21.00;99.90;;;;;;6179153;23;20147;-77
2023/05/09 07:15:05;;;;;;;8.33;7.03;;;21.10;97.50;;;;;;6128484;23;20495;-76
2023/05/09 07:17:30;;;;;;;6.63;6.00;;;21.10;95.90;;;;;;6125595;23;20414;-77
2023/05/09 07:20:09;;;;;;;;;;;;;;;;;;;;;
2023/05/09 07:22:35;;;;;;;5.57;4.73;;;21.30;93.30;;;;;;6180738;23;20218;-77
2023/05/09 07:25:05;;;;;;;5.80;5.23;;;21.30;91.30;;;;;;6149571;23;20371;-77
2023/05/09 07:27:35;;;;;;;5.17;4.73;;;21.40;88.20;;;;;;6126614;23;20167;-77
2023/05/09 07:30:06;;;;;;;8.93;6.83;;;21.40;90.30;;;;;;6153472;23;20425;-77
2023/05/09 07:32:32;;;;;;;5.77;5.23;;;21.50;83.30;;;;;;6129964;23;20382;-78
2023/05/09 07:34:57;;;;;;;6.83;5.23;;;21.70;85.00;;;;;;6153111;23;20792;-75
2023/05/09 07:37:23;;;;;;;6.03;5.53;;;21.80;83.60;;;;;;6149895;23;20155;-78
2023/05/09 07:39:52;;;;;;;6.30;5.80;;;21.80;79.40;;;;;;6152190;23;20186;-77
2023/05/09 07:42:20;;;;;;;11.57;7.90;;;21.80;78.70;;;;;;6151062;23;20411;-75
2023/05/09 07:44:48;;;;;;;6.90;6.20;;;21.80;79.80;;;;;;6175313;23;20362;-78
2023/05/09 07:47:19;;;;;;;5.60;5.10;;;21.90;80.60;;;;;;6151415;23;20413;-78
2023/05/09 07:49:45;;;;;;;4.63;4.23;;;22.00;79.20;;;;;;6180795;23;20387;-77
2023/05/09 07:52:11;;;;;;;5.00;4.53;;;22.20;76.90;;;;;;6125412;23;20375;-76
2023/05/09 07:54:39;;;;;;;7.40;6.60;;;22.40;75.20;;;;;;6175773;23;20369;-78
2023/05/09 07:57:07;;;;;;;5.57;5.07;;;22.50;71.50;;;;;;6149489;23;20205;-77
2023/05/09 07:59:35;;;;;;;5.53;4.90;;;22.50;71.60;;;;;;6176027;23;20457;-75
2023/05/09 08:02:03;;;;;;;4.57;4.17;;;22.50;70.20;;;;;;6152304;23;20441;-77
2023/05/09 08:04:29;;;;;;;4.67;4.27;;;22.50;70.40;;;;;;6180087;23;20367;-78
2023/05/09 08:07:02;;;;;;;5.23;4.10;;;22.50;69.50;;;;;;6150677;23;20386;-77
2023/05/09 08:09:28;;;;;;;4.23;3.83;;;22.40;69.60;;;;;;6151099;23;20219;-79
2023/05/09 08:11:54;;;;;;;6.10;4.00;;;22.40;67.40;;;;;;6124833;23;20382;-77
2023/05/09 08:14:19;;;;;;;4.20;3.80;;;22.30;65.10;;;;;;6179544;23;20187;-75
2023/05/09 08:16:51;;;;;;;3.87;3.47;;;22.20;65.50;;;;;;6155261;23;20132;-78
2023/05/09 08:19:16;;;;;;;5.27;3.60;;;22.10;65.70;;;;;;6178286;23;20395;-77
2023/05/09 08:21:42;;;;;;;4.03;3.30;;;22.00;64.30;;;;;;6151556;23;20414;-76
2023/05/09 08:24:08;;;;;;;6.27;3.80;;;22.10;64.70;;;;;;6179851;23;20134;-78
2023/05/09 08:26:34;;;;;;;5.47;3.30;;;22.00;62.90;;;;;;6153252;23;20139;-79
2023/05/09 08:29:00;;;;;;;4.33;2.60;;;22.00;62.80;;;;;;6177015;23;20418;-77
2023/05/09 08:31:26;;;;;;;3.93;3.43;;;22.00;63.40;;;;;;6150173;23;20465;-78
2023/05/09 08:33:54;;;;;;;2.63;2.40;;;22.00;62.50;;;;;;6153662;23;20358;-78
2023/05/09 08:36:22;;;;;;;3.30;2.60;;;22.10;61.30;;;;;;6179386;23;20144;-78
2023/05/09 08:38:50;;;;;;;3.17;2.23;;;22.10;61.80;;;;;;6179451;23;20401;-78
2023/05/09 08:41:22;;;;;;;2.87;2.40;;;22.10;59.80;;;;;;6155411;23;20375;-80
2023/05/09 08:43:48;;;;;;;7.23;2.40;;;22.10;59.60;;;;;;6152379;23;20370;-77
2023/05/09 08:46:16;;;;;;;3.23;2.30;;;22.00;58.70;;;;;;6150451;23;20359;-76
2023/05/09 08:48:43;;;;;;;3.50;2.67;;;22.00;58.80;;;;;;6147945;23;20398;-76
2023/05/09 08:51:10;;;;;;;3.50;3.10;;;22.20;58.70;;;;;;6152718;23;20381;-76
2023/05/09 08:53:36;;;;;;;3.40;2.50;;;22.20;57.90;;;;;;6123227;23;20409;-79
2023/05/09 08:56:09;;;;;;;3.27;2.73;;;22.30;57.80;;;;;;6152408;23;20380;-77
2023/05/09 08:58:35;;;;;;;2.73;2.40;;;22.30;57.10;;;;;;6128053;23;20391;-76
2023/05/09 09:01:05;;;;;;;2.60;2.37;;;22.30;57.30;;;;;;6150999;23;20455;-76
2023/05/09 09:03:32;;;;;;;3.13;2.67;;;22.30;57.40;;;;;;6148588;23;20421;-78
2023/05/09 09:05:58;;;;;;;3.50;2.97;;;22.30;57.20;;;;;;6150625;23;20359;-77
2023/05/09 09:08:26;;;;;;;2.60;2.20;;;22.30;56.70;;;;;;6126067;23;20401;-77
2023/05/09 09:10:52;;;;;;;3.80;3.00;;;22.50;56.20;;;;;;6148289;23;20439;-78
2023/05/09 09:13:20;;;;;;;5.13;2.80;;;22.60;55.90;;;;;;6149591;23;20422;-77
2023/05/09 09:15:47;;;;;;;2.13;2.00;;;22.70;55.60;;;;;;6124270;23;20359;-76
2023/05/09 09:18:22;;;;;;;2.40;1.90;;;22.70;55.90;;;;;;6148048;23;20386;-74
2023/05/09 09:20:51;;;;;;;2.83;2.20;;;22.90;55.80;;;;;;6122732;23;20405;-77
2023/05/09 09:23:23;;;;;;;2.67;2.27;;;23.00;55.50;;;;;;6122713;23;20422;-78
2023/05/09 09:26:01;;;;;;;8.00;2.43;;;23.00;54.90;;;;;;6122207;23;20378;-78
2023/05/09 09:28:27;;;;;;;4.90;2.00;;;23.20;54.10;;;;;;6140963;23;20474;-76
2023/05/09 09:30:53;;;;;;;3.17;2.43;;;23.20;54.50;;;;;;6122327;23;20387;-77
2023/05/09 09:33:23;;;;;;;3.73;2.80;;;23.20;54.60;;;;;;6123238;23;20737;-77
2023/05/09 09:35:51;;;;;;;3.50;3.20;;;23.40;54.60;;;;;;6125302;23;20151;-78
2023/05/09 09:38:20;;;;;;;5.10;3.67;;;23.50;53.90;;;;;;6122816;23;20854;-77
2023/05/09 09:40:56;;;;;;;3.40;2.00;;;23.50;53.30;;;;;;6146660;23;20394;-75
2023/05/09 09:43:29;;;;;;;3.00;2.63;;;23.60;53.50;;;;;;6173101;23;20411;-79
2023/05/09 09:45:56;;;;;;;2.90;2.33;;;23.80;52.70;;;;;;6145376;23;20385;-77
2023/05/09 09:48:26;;;;;;;3.27;2.43;;;23.90;52.50;;;;;;6146450;23;20421;-78
2023/05/09 09:50:58;;;;;;;2.07;1.87;;;24.00;52.60;;;;;;6122671;23;20403;-79
2023/05/09 09:53:29;;;;;;;4.53;3.00;;;24.10;52.70;;;;;;6123837;23;20382;-78
2023/05/09 09:55:55;;;;;;;2.83;2.40;;;24.10;52.30;;;;;;6121295;23;20375;-77
2023/05/09 09:58:23;;;;;;;4.90;3.03;;;24.30;52.50;;;;;;6144546;23;20383;-76
2023/05/09 10:01:04;;;;;;;4.80;3.57;;;24.20;52.10;;;;;;6171866;23;20193;-77
2023/05/09 10:03:40;;;;;;;3.40;2.67;;;24.30;51.60;;;;;;6145564;23;20486;-77
2023/05/09 10:06:14;;;;;;;5.03;2.73;;;24.30;51.70;;;;;;6172929;23;20455;-76
2023/05/09 10:08:40;;;;;;;4.53;2.50;;;24.30;52.10;;;;;;6147452;23;20462;-77
2023/05/09 10:11:06;;;;;;;3.90;3.20;;;24.40;51.60;;;;;;6124041;23;20380;-79
2023/05/09 10:13:37;;;;;;;4.40;2.53;;;24.40;51.80;;;;;;6174664;23;20410;-80
2023/05/09 10:16:04;;;;;;;5.43;2.60;;;24.30;51.70;;;;;;6127899;23;20371;-79
2023/05/09 10:18:30;;;;;;;7.70;3.47;;;24.50;51.70;;;;;;6126456;23;20474;-77
2023/05/09 10:21:00;;;;;;;3.00;2.70;;;24.60;51.10;;;;;;6130983;23;20415;-81
2023/05/09 10:23:48;;;;;;;4.70;4.10;;;24.60;51.50;;;;;;6137166;23;20421;-82
2023/05/09 10:27:02;;;;;;;5.60;4.23;;;24.90;50.90;;;;;;6157405;23;20378;-83
2023/05/09 10:30:22;;;;;;;4.20;3.27;;;25.00;51.10;;;;;;6116648;23;20466;-80
2023/05/09 10:33:26;;;;;;;3.90;2.40;;;25.10;50.50;;;;;;6191954;23;20393;-82
2023/05/09 10:36:23;;;;;;;3.50;2.63;;;25.00;50.60;;;;;;6188156;23;20389;-81
2023/05/09 10:39:05;;;;;;;4.17;2.57;;;25.20;50.10;;;;;;6200300;23;20406;-81
2023/05/09 10:41:36;;;;;;;6.23;3.27;;;25.30;49.90;;;;;;6188212;23;20366;-81
2023/05/09 10:44:06;;;;;;;4.00;2.77;;;25.00;50.30;;;;;;6115895;23;20374;-82
2023/05/09 10:47:11;;;;;;;4.27;3.03;;;24.80;50.80;;;;;;6192417;23;20401;-81
2023/05/09 10:49:43;;;;;;;6.70;3.97;;;25.10;51.60;;;;;;6119221;23;20414;-82
2023/05/09 10:52:09;;;;;;;4.17;3.77;;;25.00;50.60;;;;;;6139678;23;20529;-81
2023/05/09 10:55:06;;;;;;;2.97;2.67;;;24.90;51.20;;;;;;6139796;23;20362;-83
2023/05/09 10:57:53;;;;;;;4.00;3.17;;;25.00;51.10;;;;;;6138706;23;20378;-81
2023/05/09 11:00:25;;;;;;;5.93;3.90;;;25.10;50.90;;;;;;6166223;23;20409;-81
2023/05/09 11:03:29;;;;;;;4.90;2.77;;;25.20;50.50;;;;;;6095945;23;20524;-81
2023/05/09 11:05:57;;;;;;;5.07;2.80;;;25.00;50.80;;;;;;6096367;23;20444;-79
2023/05/09 11:08:28;;;;;;;3.80;3.10;;;25.10;50.70;;;;;;6067900;23;20380;-77
2023/05/09 11:10:55;;;;;;;3.93;2.80;;;25.10;50.70;;;;;;6092761;23;20416;-79
2023/05/09 11:13:29;;;;;;;3.73;3.00;;;25.10;50.70;;;;;;6092988;23;20389;-76
2023/05/09 11:16:00;;;;;;;3.20;2.90;;;25.20;51.20;;;;;;6094995;23;20401;-78
2023/05/09 11:18:30;;;;;;;3.67;2.23;;;25.40;50.70;;;;;;6072290;23;20460;-80
2023/05/09 11:21:14;;;;;;;2.80;2.30;;;25.60;50.30;;;;;;6096681;23;20399;-79
2023/05/09 11:23:41;;;;;;;4.50;2.50;;;25.70;50.10;;;;;;6094767;23;20446;-80
2023/05/09 11:26:10;;;;;;;3.33;2.07;;;25.90;49.20;;;;;;6070339;23;20373;-79
2023/05/09 11:28:37;;;;;;;5.60;2.37;;;25.90;49.40;;;;;;6069713;23;20440;-77
2023/05/09 11:31:17;;;;;;;6.10;2.27;;;26.20;49.40;;;;;;6089959;23;20467;-79
2023/05/09 11:33:53;;;;;;;1.90;1.80;;;26.30;48.10;;;;;;6120928;23;20400;-80
2023/05/09 11:36:32;;;;;;;2.73;2.40;;;26.50;48.10;;;;;;6068897;23;20395;-78
2023/05/09 11:39:10;;;;;;;3.03;2.00;;;26.50;47.90;;;;;;6116165;23;20383;-79
2023/05/09 11:41:45;;;;;;;6.90;4.20;;;26.70;46.50;;;;;;6097008;23;20357;-79
2023/05/09 11:44:23;;;;;;;3.27;2.97;;;26.70;45.70;;;;;;6075231;23;20388;-79
2023/05/09 11:46:48;;;;;;;4.30;3.00;;;26.50;46.50;;;;;;6098748;23;20383;-79
2023/05/09 11:49:15;;;;;;;3.77;2.33;;;26.30;47.00;;;;;;6072911;23;20408;-78
2023/05/09 11:51:41;;;;;;;2.40;2.10;;;26.40;46.80;;;;;;6091201;23;20160;-77
2023/05/09 11:54:11;;;;;;;4.20;2.80;;;26.60;46.60;;;;;;6075130;23;20372;-78
2023/05/09 11:56:39;;;;;;;3.43;2.73;;;26.60;46.50;;;;;;6073420;23;20155;-79
2023/05/09 11:59:07;;;;;;;3.23;2.93;;;26.60;46.40;;;;;;6121855;23;20399;-79
2023/05/09 12:01:34;;;;;;;8.30;3.30;;;26.70;46.60;;;;;;6098471;23;20504;-79
2023/05/09 12:04:01;;;;;;;2.53;1.83;;;26.80;46.40;;;;;;6049994;23;20531;-79
2023/05/09 12:06:29;;;;;;;2.20;1.90;;;26.90;46.20;;;;;;6095282;23;20819;-78
2023/05/09 12:08:58;;;;;;;3.37;2.60;;;26.90;45.90;;;;;;6071443;23;20377;-79
2023/05/09 12:11:24;;;;;;;2.80;1.93;;;26.90;45.40;;;;;;6074540;23;20373;-79
2023/05/09 12:13:51;;;;;;;3.70;2.23;;;27.00;44.00;;;;;;6075472;23;20364;-79
2023/05/09 12:16:18;;;;;;;2.40;2.10;;;27.00;44.20;;;;;;6117254;23;20406;-79
2023/05/09 12:18:51;;;;;;;3.43;2.47;;;26.90;44.50;;;;;;6095003;23;20387;-77
2023/05/09 12:21:19;;;;;;;3.67;2.10;;;27.00;44.00;;;;;;6095100;23;20409;-78
2023/05/09 12:23:47;;;;;;;7.27;2.77;;;26.90;43.50;;;;;;6093003;23;20420;-79
2023/05/09 12:26:14;;;;;;;3.20;2.40;;;26.90;44.00;;;;;;6095853;23;20357;-79
2023/05/09 12:28:42;;;;;;;3.37;2.90;;;26.90;44.60;;;;;;6075074;23;20455;-80
2023/05/09 12:31:08;;;;;;;3.33;2.67;;;26.80;44.30;;;;;;6123868;23;20348;-79
2023/05/09 12:33:37;;;;;;;4.00;3.17;;;26.70;44.80;;;;;;6074616;23;20412;-78
2023/05/09 12:36:14;;;;;;;4.13;2.43;;;26.30;46.60;;;;;;6099815;23;20381;-79
2023/05/09 12:38:54;;;;;;;2.53;2.33;;;26.10;47.30;;;;;;6074016;23;20416;-79
2023/05/09 12:41:27;;;;;;;3.30;3.00;;;26.10;46.90;;;;;;6101933;23;20372;-81
2023/05/09 12:43:54;;;;;;;6.53;2.83;;;26.10;47.40;;;;;;6101174;23;20404;-80
2023/05/09 12:46:22;;;;;;;3.33;2.50;;;26.20;47.50;;;;;;6124490;23;20384;-81
2023/05/09 12:48:48;;;;;;;2.53;2.33;;;26.20;47.30;;;;;;6074189;23;20385;-78